createdAt,value
2022-08-20T00:02:11.028Z,100636.97
2022-08-20T00:04:39.540Z,100637.94
2022-08-20T00:07:07.116Z,100628.38
2022-08-20T00:09:36.904Z,100628.38
2022-08-20T00:12:06.453Z,100635.50
2022-08-20T00:14:34.327Z,100633.81
2022-08-20T00:17:02.300Z,100632.25
2022-08-20T00:19:29.333Z,100633.91
2022-08-20T00:21:58.058Z,100626.06
2022-08-20T00:24:26.004Z,100623.63
2022-08-20T00:26:53.085Z,100613.91
2022-08-20T00:29:20.781Z,100617.56
2022-08-20T00:31:50.695Z,100615.00
2022-08-20T00:34:18.071Z,100618.66
2022-08-20T00:36:45.132Z,100616.94
2022-08-20T00:39:12.095Z,100617.78
2022-08-20T00:41:39.092Z,100617.78
2022-08-20T00:44:16.865Z,100614.41
2022-08-20T00:46:47.737Z,100607.38
2022-08-20T00:49:19.041Z,100598.44
2022-08-20T00:52:22.354Z,100602.03
2022-08-20T00:54:53.760Z,100582.69
2022-08-20T00:57:43.872Z,100588.00
2022-08-20T01:00:28.429Z,100582.69
2022-08-20T01:02:57.481Z,100578.31
2022-08-20T01:05:27.835Z,100572.97
2022-08-20T01:07:58.011Z,100575.63
2022-08-20T01:10:29.939Z,100570.44
2022-08-20T01:12:59.674Z,100575.88
2022-08-20T01:15:32.043Z,100565.22
2022-08-20T01:18:01.252Z,100562.56
2022-08-20T01:20:32.646Z,100559.16
2022-08-20T01:23:30.719Z,100561.09
2022-08-20T01:26:04.331Z,100545.97
2022-08-20T01:28:37.127Z,100548.50
2022-08-20T01:31:06.720Z,100546.69
2022-08-20T01:33:33.901Z,100547.56
2022-08-20T01:36:01.051Z,100542.22
2022-08-20T01:38:29.950Z,100540.53
2022-08-20T01:41:28.439Z,100547.56
2022-08-20T01:43:58.329Z,100544.88
2022-08-20T01:46:33.042Z,100548.50
2022-08-20T01:49:32.592Z,100537.00
2022-08-20T01:52:02.378Z,100522.00
2022-08-20T01:54:29.241Z,100522.00
2022-08-20T01:57:12.106Z,100522.00
2022-08-20T01:59:40.209Z,100514.97
2022-08-20T02:02:07.766Z,100516.91
2022-08-20T02:04:35.410Z,100512.44
2022-08-20T02:07:05.548Z,100519.66
2022-08-20T02:09:37.023Z,100518.00
2022-08-20T02:12:06.769Z,100507.44
2022-08-20T02:14:34.074Z,100504.06
2022-08-20T02:17:01.283Z,100501.41
2022-08-20T02:19:37.406Z,100493.53
2022-08-20T02:22:12.935Z,100490.03
2022-08-20T02:24:39.926Z,100488.31
2022-08-20T02:27:06.870Z,100490.13
2022-08-20T02:29:33.729Z,100486.72
2022-08-20T02:32:24.873Z,100485.88
2022-08-20T02:34:47.748Z,100481.41
2022-08-20T02:37:18.799Z,100478.88
2022-08-20T02:39:46.266Z,100465.56
2022-08-20T02:42:13.590Z,100466.66
2022-08-20T02:44:40.546Z,100456.97
2022-08-20T02:47:08.027Z,100463.00
2022-08-20T02:49:35.759Z,100456.97
2022-08-20T02:52:02.826Z,100442.94
2022-08-20T02:54:29.701Z,100438.44
2022-08-20T02:56:56.733Z,100436.63
2022-08-20T02:59:23.710Z,100429.72
2022-08-20T03:01:59.268Z,100422.59
2022-08-20T03:04:29.133Z,100423.56
2022-08-20T03:06:56.250Z,100412.91
2022-08-20T03:09:23.131Z,100405.88
2022-08-20T03:11:50.033Z,100407.69
2022-08-20T03:14:17.023Z,100400.56
2022-08-20T03:16:43.950Z,100402.50
2022-08-20T03:19:10.763Z,100404.19
2022-08-20T03:21:37.761Z,100393.78
2022-08-20T03:24:04.737Z,100400.78
2022-08-20T03:26:31.763Z,100393.78
2022-08-20T03:28:58.625Z,100401.78
2022-08-20T03:31:25.506Z,100393.78
2022-08-20T03:33:53.452Z,100394.75
2022-08-20T03:36:28.381Z,100383.16
2022-08-20T03:39:00.843Z,100377.81
2022-08-20T03:41:28.951Z,100366.31
2022-08-20T03:43:56.089Z,100372.59
2022-08-20T03:46:23.959Z,100371.75
2022-08-20T03:49:00.409Z,100376.34
2022-08-20T03:51:29.303Z,100358.69
2022-08-20T03:53:56.485Z,100349.97
2022-08-20T03:56:23.445Z,100357.00
2022-08-20T03:58:50.290Z,100341.03
2022-08-20T04:01:45.031Z,100341.03
2022-08-20T04:04:04.795Z,100328.69
2022-08-20T04:06:31.972Z,100323.34
2022-08-20T04:08:58.868Z,100310.06
2022-08-20T04:11:25.758Z,100293.34
2022-08-20T04:13:52.808Z,100290.69
2022-08-20T04:16:19.699Z,100287.19
2022-08-20T04:18:58.594Z,100258.91
2022-08-20T04:21:29.667Z,100261.56
2022-08-20T04:24:00.329Z,100258.03
2022-08-20T04:26:27.251Z,100261.66
2022-08-20T04:28:55.829Z,100257.28
2022-08-20T04:31:33.471Z,100262.75
2022-08-20T04:34:02.234Z,100253.91
2022-08-20T04:36:29.726Z,100261.03
2022-08-20T04:38:56.658Z,100274.50
2022-08-20T04:41:24.467Z,100267.47
2022-08-20T04:43:54.518Z,100266.72
2022-08-20T04:46:24.182Z,100264.91
2022-08-20T04:48:51.113Z,100268.50
2022-08-20T04:51:18.822Z,100250.97
2022-08-20T04:53:51.866Z,100262.34
2022-08-20T04:56:26.755Z,100262.47
2022-08-20T04:58:56.286Z,100253.63
2022-08-20T05:01:24.139Z,100250.88
2022-08-20T05:03:51.579Z,100252.56
2022-08-20T05:06:18.980Z,100262.34
2022-08-20T05:08:46.185Z,100254.16
2022-08-20T05:11:34.773Z,100258.47
2022-08-20T05:14:09.316Z,100245.19
2022-08-20T05:16:38.677Z,100238.19
2022-08-20T05:19:08.975Z,100249.06
2022-08-20T05:21:36.201Z,100253.53
2022-08-20T05:24:03.235Z,100254.63
2022-08-20T05:26:30.081Z,100247.97
2022-08-20T05:28:58.988Z,100249.53
2022-08-20T05:31:31.608Z,100232.34
2022-08-20T05:34:00.142Z,100222.47
2022-08-20T05:36:27.221Z,100221.59
2022-08-20T05:38:54.991Z,100224.03
2022-08-20T05:41:27.734Z,100219.66
2022-08-20T05:43:57.827Z,100209.88
2022-08-20T05:46:24.775Z,100210.72
2022-08-20T05:48:51.813Z,100207.06
2022-08-20T05:51:18.773Z,100202.59
2022-08-20T05:53:45.900Z,100189.31
2022-08-20T05:56:12.750Z,100191.72
2022-08-20T05:58:39.656Z,100181.09
2022-08-20T06:01:06.891Z,100186.28
2022-08-20T06:03:52.905Z,100176.47
2022-08-20T06:06:45.096Z,100175.53
2022-08-20T06:09:07.929Z,100169.22
2022-08-20T06:11:37.234Z,100163.78
2022-08-20T06:14:05.999Z,100149.78
2022-08-20T06:16:32.995Z,100151.44
2022-08-20T06:19:02.664Z,100154.00
2022-08-20T06:21:31.670Z,100138.88
2022-08-20T06:24:00.875Z,100132.72
2022-08-20T06:26:30.263Z,100128.47
2022-08-20T06:29:00.436Z,100132.81
2022-08-20T06:31:28.089Z,100128.47
2022-08-20T06:33:54.963Z,100122.16
2022-08-20T06:36:22.334Z,100099.22
2022-08-20T06:38:49.448Z,100100.03
2022-08-20T06:41:17.552Z,100093.75
2022-08-20T06:43:44.593Z,100100.03
2022-08-20T06:46:11.474Z,100098.22
2022-08-20T06:48:38.539Z,100105.34
2022-08-20T06:51:06.968Z,100108.88
2022-08-20T06:53:34.022Z,100111.41
2022-08-20T06:56:01.298Z,100105.34
2022-08-20T06:58:38.328Z,100111.41
2022-08-20T07:01:11.248Z,100106.09
2022-08-20T07:03:55.730Z,100108.75
2022-08-20T07:06:26.046Z,100098.97
2022-08-20T07:08:54.399Z,100104.19
2022-08-20T07:11:26.602Z,100112.16
2022-08-20T07:13:57.053Z,100108.66
2022-08-20T07:16:24.382Z,100112.88
2022-08-20T07:18:51.313Z,100110.22
2022-08-20T07:21:18.664Z,100109.25
2022-08-20T07:23:45.684Z,100115.53
2022-08-20T07:26:17.229Z,100113.72
2022-08-20T07:28:44.202Z,100104.66
2022-08-20T07:31:31.217Z,100113.59
2022-08-20T07:33:58.953Z,100124.97
2022-08-20T07:36:28.511Z,100122.31
2022-08-20T07:38:56.976Z,100108.78
2022-08-20T07:41:24.802Z,100104.25
2022-08-20T07:43:51.844Z,100107.69
2022-08-20T07:46:21.795Z,100094.22
2022-08-20T07:48:50.653Z,100080.78
2022-08-20T07:51:20.270Z,100098.34
2022-08-20T07:53:48.654Z,100106.06
2022-08-20T07:56:19.643Z,100104.25
2022-08-20T07:58:52.685Z,100114.03
2022-08-20T08:01:29.934Z,100126.13
2022-08-20T08:03:58.040Z,100111.59
2022-08-20T08:06:30.566Z,100118.63
2022-08-20T08:09:03.071Z,100116.66
2022-08-20T08:11:31.659Z,100112.91
2022-08-20T08:14:00.107Z,100107.47
2022-08-20T08:16:28.829Z,100119.94
2022-08-20T08:18:57.037Z,100119.69
2022-08-20T08:21:24.249Z,100116.16
2022-08-20T08:23:51.273Z,100115.22
2022-08-20T08:26:19.604Z,100119.53
2022-08-20T08:28:47.103Z,100128.25
2022-08-20T08:31:15.003Z,100130.66
2022-08-20T08:33:42.363Z,100127.88
2022-08-20T08:36:11.843Z,100137.44
2022-08-20T08:38:41.531Z,100140.81
2022-08-20T08:41:34.791Z,100140.81
2022-08-20T08:44:08.623Z,100149.25
2022-08-20T08:46:44.933Z,100143.53
2022-08-20T08:49:16.721Z,100147.91
2022-08-20T08:51:49.435Z,100155.75
2022-08-20T08:54:23.304Z,100150.72
2022-08-20T08:56:50.764Z,100146.81
2022-08-20T08:59:18.978Z,100147.50
2022-08-20T09:01:55.097Z,100143.88
2022-08-20T09:04:31.884Z,100160.00
2022-08-20T09:07:01.951Z,100170.06
2022-08-20T09:09:39.172Z,100173.44
2022-08-20T09:12:13.550Z,100164.50
2022-08-20T09:14:41.497Z,100173.34
2022-08-20T09:17:08.512Z,100179.00
2022-08-20T09:19:36.076Z,100172.03
2022-08-20T09:22:15.622Z,100169.47
2022-08-20T09:24:43.603Z,100174.78
2022-08-20T09:27:11.620Z,100165.13
2022-08-20T09:29:39.527Z,100157.00
2022-08-20T09:32:09.564Z,100153.84
2022-08-20T09:34:42.921Z,100150.06
2022-08-20T09:37:10.078Z,100159.41
2022-08-20T09:39:37.185Z,100149.25
2022-08-20T09:42:24.899Z,100149.75
2022-08-20T09:44:52.350Z,100158.75
2022-08-20T09:47:19.659Z,100162.59
2022-08-20T09:49:47.222Z,100171.59
2022-08-20T09:52:26.130Z,100168.94
2022-08-20T09:54:57.299Z,100180.53
2022-08-20T09:57:24.662Z,100169.28
2022-08-20T09:59:59.346Z,100178.13
2022-08-20T10:02:26.412Z,100175.47
2022-08-20T10:04:53.437Z,100165.06
2022-08-20T10:07:20.453Z,100172.09
2022-08-20T10:09:47.485Z,100167.47
2022-08-20T10:12:14.481Z,100168.31
2022-08-20T10:14:41.598Z,100170.13
2022-08-20T10:17:08.661Z,100174.34
2022-08-20T10:19:35.711Z,100170.50
2022-08-20T10:22:02.772Z,100169.38
2022-08-20T10:24:30.100Z,100156.53
2022-08-20T10:26:59.440Z,100154.47
2022-08-20T10:29:27.937Z,100162.06
2022-08-20T10:31:57.298Z,100154.53
2022-08-20T10:34:25.861Z,100158.78
2022-08-20T10:36:53.244Z,100152.34
2022-08-20T10:39:20.443Z,100145.06
2022-08-20T10:41:47.467Z,100141.28
2022-08-20T10:44:14.523Z,100150.84
2022-08-20T10:46:41.576Z,100155.06
2022-08-20T10:49:08.594Z,100148.66
2022-08-20T10:51:35.625Z,100151.78
2022-08-20T10:54:02.806Z,100150.72
2022-08-20T10:56:35.427Z,100152.13
2022-08-20T10:59:02.765Z,100148.50
2022-08-20T11:01:33.929Z,100158.91
2022-08-20T11:04:03.567Z,100154.28
2022-08-20T11:06:30.941Z,100166.50
2022-08-20T11:08:57.966Z,100157.53
2022-08-20T11:11:24.936Z,100158.09
2022-08-20T11:13:51.957Z,100153.38
2022-08-20T11:16:19.070Z,100163.06
2022-08-20T11:18:47.546Z,100168.41
2022-08-20T11:21:15.345Z,100158.19
2022-08-20T11:23:42.335Z,100170.53
2022-08-20T11:26:10.174Z,100165.06
2022-08-20T11:28:37.187Z,100161.31
2022-08-20T11:31:04.126Z,100178.97
2022-08-20T11:33:31.041Z,100175.34
2022-08-20T11:35:58.170Z,100166.38
2022-08-20T11:38:25.283Z,100166.94
2022-08-20T11:40:52.250Z,100173.13
2022-08-20T11:43:19.176Z,100167.38
2022-08-20T11:45:53.081Z,100174.56
2022-08-20T11:48:20.237Z,100177.94
2022-08-20T11:50:48.038Z,100184.81
2022-08-20T11:53:15.438Z,100181.06
2022-08-20T11:55:42.708Z,100189.75
2022-08-20T11:58:10.374Z,100196.78
2022-08-20T12:00:37.360Z,100197.50
2022-08-20T12:03:09.046Z,100192.88
2022-08-20T12:05:38.205Z,100203.53
2022-08-20T12:08:05.817Z,100198.09
2022-08-20T12:10:33.023Z,100205.25
2022-08-20T12:13:00.015Z,100190.09
2022-08-20T12:15:29.791Z,100198.66
2022-08-20T12:17:56.883Z,100199.66
2022-08-20T12:20:24.578Z,100197.69
2022-08-20T12:22:51.679Z,100190.53
2022-08-20T12:25:18.758Z,100199.50
2022-08-20T12:27:46.755Z,100202.31
2022-08-20T12:30:23.031Z,100204.97
2022-08-20T12:32:50.416Z,100208.34
2022-08-20T12:35:18.956Z,100209.06
2022-08-20T12:37:46.996Z,100206.41
2022-08-20T12:40:31.781Z,100215.09
2022-08-20T12:42:59.161Z,100209.75
2022-08-20T12:45:26.287Z,100208.81
2022-08-20T12:47:53.333Z,100220.44
2022-08-20T12:50:23.419Z,100214.28
2022-08-20T12:52:51.121Z,100214.41
2022-08-20T12:55:19.956Z,100217.06
2022-08-20T12:57:54.144Z,100217.91
2022-08-20T13:00:27.293Z,100217.78
2022-08-20T13:02:56.748Z,100229.19
2022-08-20T13:05:24.372Z,100213.16
2022-08-20T13:07:52.131Z,100220.19
2022-08-20T13:10:22.678Z,100227.47
2022-08-20T13:12:50.344Z,100220.72
2022-08-20T13:15:17.680Z,100233.06
2022-08-20T13:17:45.222Z,100226.88
2022-08-20T13:20:17.651Z,100235.88
2022-08-20T13:22:45.328Z,100233.06
2022-08-20T13:25:15.924Z,100234.63
2022-08-20T13:27:44.133Z,100235.88
2022-08-20T13:30:15.975Z,100227.03
2022-08-20T13:32:43.281Z,100245.69
2022-08-20T13:35:12.050Z,100245.09
2022-08-20T13:37:40.649Z,100244.53
2022-08-20T13:40:09.441Z,100236.66
2022-08-20T13:42:37.207Z,100245.66
2022-08-20T13:45:06.280Z,100239.31
2022-08-20T13:47:36.439Z,100244.81
2022-08-20T13:50:22.230Z,100254.47
2022-08-20T13:52:49.269Z,100249.13
2022-08-20T13:55:19.235Z,100247.47
2022-08-20T13:57:47.615Z,100248.31
2022-08-20T14:00:30.963Z,100245.66
2022-08-20T14:02:59.001Z,100255.47
2022-08-20T14:05:26.985Z,100258.13
2022-08-20T14:07:54.071Z,100253.75
2022-08-20T14:10:25.594Z,100258.13
2022-08-20T14:12:53.305Z,100246.47
2022-08-20T14:15:20.488Z,100259.81
2022-08-20T14:17:53.959Z,100252.81
2022-08-20T14:20:24.197Z,100248.19
2022-08-20T14:22:51.319Z,100257.16
2022-08-20T14:25:20.624Z,100252.91
2022-08-20T14:27:47.544Z,100262.75
2022-08-20T14:30:17.677Z,100253.75
2022-08-20T14:32:44.728Z,100264.44
2022-08-20T14:35:12.215Z,100262.75
2022-08-20T14:37:42.391Z,100265.44
2022-08-20T14:40:13.251Z,100266.41
2022-08-20T14:42:40.925Z,100273.44
2022-08-20T14:45:13.392Z,100258.41
2022-08-20T14:47:44.426Z,100265.53
2022-08-20T14:50:16.017Z,100258.66
2022-08-20T14:52:43.649Z,100264.25
2022-08-20T14:55:16.427Z,100266.19
2022-08-20T14:57:43.803Z,100266.19
2022-08-20T15:00:16.044Z,100258.44
2022-08-20T15:02:43.118Z,100273.59
2022-08-20T15:05:11.180Z,100264.63
2022-08-20T15:07:40.935Z,100265.47
2022-08-20T15:10:13.139Z,100265.34
2022-08-20T15:12:43.068Z,100259.56
2022-08-20T15:15:15.465Z,100271.06
2022-08-20T15:17:49.060Z,100263.31
2022-08-20T15:20:20.603Z,100256.28
2022-08-20T15:22:49.440Z,100257.03
2022-08-20T15:25:19.546Z,100264.03
2022-08-20T15:27:47.041Z,100262.47
2022-08-20T15:30:23.273Z,100261.75
2022-08-20T15:32:54.964Z,100259.94
2022-08-20T15:35:24.814Z,100258.97
2022-08-20T15:37:54.663Z,100262.63
2022-08-20T15:40:27.834Z,100257.28
2022-08-20T15:42:56.195Z,100251.94
2022-08-20T15:45:23.454Z,100254.63
2022-08-20T15:47:53.532Z,100270.72
2022-08-20T15:51:01.819Z,100254.97
2022-08-20T15:53:57.069Z,100253.97
2022-08-20T15:57:01.958Z,100257.72
2022-08-20T15:59:34.719Z,100263.63
2022-08-20T16:02:07.537Z,100257.84
2022-08-20T16:04:37.163Z,100264.16
2022-08-20T16:07:13.563Z,100260.75
2022-08-20T16:09:54.231Z,100264.41
2022-08-20T16:12:33.365Z,100254.25
2022-08-20T16:15:04.016Z,100256.06
2022-08-20T16:17:46.051Z,100264.66
2022-08-20T16:20:13.080Z,100253.00
2022-08-20T16:22:45.422Z,100257.38
2022-08-20T16:25:13.899Z,100262.72
2022-08-20T16:27:54.019Z,100268.03
2022-08-20T16:30:33.099Z,100263.81
2022-08-20T16:33:14.208Z,100259.72
2022-08-20T16:35:48.183Z,100260.94
2022-08-20T16:38:29.070Z,100251.13
2022-08-20T16:41:06.964Z,100256.66
2022-08-20T16:44:04.149Z,100260.28
2022-08-20T16:46:38.080Z,100265.63
2022-08-20T16:49:14.112Z,100268.28
2022-08-20T16:51:49.433Z,100269.88
2022-08-20T16:54:28.407Z,100263.81
2022-08-20T16:57:04.647Z,100249.91
2022-08-20T16:59:33.296Z,100261.53
2022-08-20T17:02:10.250Z,100255.50
2022-08-20T17:04:59.293Z,100263.34
2022-08-20T17:07:40.604Z,100255.25
2022-08-20T17:10:33.831Z,100264.91
2022-08-20T17:13:23.798Z,100262.13
2022-08-20T17:16:02.761Z,100263.81
2022-08-20T17:18:39.629Z,100262.84
2022-08-20T17:21:16.057Z,100269.88
2022-08-20T17:23:56.089Z,100258.38
2022-08-20T17:26:44.375Z,100275.97
2022-08-20T17:29:21.785Z,100274.13
2022-08-20T17:31:55.317Z,100282.00
2022-08-20T17:34:30.004Z,100282.84
2022-08-20T17:36:59.115Z,100289.03
2022-08-20T17:39:29.572Z,100285.88
2022-08-20T17:42:14.885Z,100292.28
2022-08-20T17:44:46.025Z,100288.19
2022-08-20T17:47:17.129Z,100291.69
2022-08-20T17:49:53.261Z,100299.78
2022-08-20T17:52:39.616Z,100299.09
2022-08-20T17:55:08.840Z,100302.72
2022-08-20T17:57:40.479Z,100305.50
2022-08-20T18:00:14.821Z,100304.56
2022-08-20T18:02:43.964Z,100301.13
2022-08-20T18:05:20.413Z,100296.91
2022-08-20T18:08:10.299Z,100293.53
2022-08-20T18:11:03.959Z,100319.22
2022-08-20T18:13:45.059Z,100316.78
2022-08-20T18:16:39.977Z,100318.75
2022-08-20T18:19:21.034Z,100314.38
2022-08-20T18:22:03.107Z,100322.59
2022-08-20T18:25:21.664Z,100317.53
2022-08-20T18:28:02.771Z,100319.59
2022-08-20T18:30:33.287Z,100323.09
2022-08-20T18:33:10.057Z,100311.63
2022-08-20T18:35:46.145Z,100323.09
2022-08-20T18:38:43.593Z,100323.38
2022-08-20T18:41:14.712Z,100313.53
2022-08-20T18:43:48.507Z,100323.00
2022-08-20T18:46:27.420Z,100327.69
2022-08-20T18:49:00.270Z,100329.13
2022-08-20T18:51:41.821Z,100328.63
2022-08-20T18:54:22.305Z,100314.13
2022-08-20T18:57:05.089Z,100313.72
2022-08-20T18:59:39.123Z,100318.72
2022-08-20T19:02:19.632Z,100321.97
2022-08-20T19:04:54.816Z,100321.59
2022-08-20T19:07:48.400Z,100326.56
2022-08-20T19:10:42.110Z,100329.69
2022-08-20T19:13:24.139Z,100332.38
2022-08-20T19:15:57.507Z,100328.59
2022-08-20T19:18:33.679Z,100331.84
2022-08-20T19:21:04.371Z,100333.41
2022-08-20T19:23:40.357Z,100342.00
2022-08-20T19:26:25.095Z,100344.53
2022-08-20T19:29:13.163Z,100346.22
2022-08-20T19:31:44.511Z,100338.94
2022-08-20T19:34:24.031Z,100343.31
2022-08-20T19:37:32.257Z,100353.03
2022-08-20T19:40:19.922Z,100352.16
2022-08-20T19:42:47.721Z,100354.69
2022-08-20T19:45:31.168Z,100354.69
2022-08-20T19:48:27.098Z,100356.41
2022-08-20T19:51:17.763Z,100351.91
2022-08-20T19:53:47.831Z,100354.44
2022-08-20T19:56:28.098Z,100369.34
2022-08-20T19:59:05.057Z,100365.81
2022-08-20T20:01:33.945Z,100369.25
2022-08-20T20:04:08.472Z,100364.00
2022-08-20T20:06:38.976Z,100368.13
2022-08-20T20:09:17.939Z,100368.84
2022-08-20T20:11:49.093Z,100375.59
2022-08-20T20:14:18.139Z,100365.78
2022-08-20T20:16:50.672Z,100374.38
2022-08-20T20:19:27.222Z,100375.25
2022-08-20T20:22:19.889Z,100375.94
2022-08-20T20:25:14.698Z,100374.00
2022-08-20T20:27:52.256Z,100366.84
2022-08-20T20:30:49.004Z,100366.69
2022-08-20T20:33:24.380Z,100376.41
2022-08-20T20:36:04.949Z,100376.41
2022-08-20T20:38:34.096Z,100377.28
2022-08-20T20:41:06.057Z,100379.22
2022-08-20T20:43:42.014Z,100385.28
2022-08-20T20:46:20.262Z,100380.78
2022-08-20T20:48:55.693Z,100381.59
2022-08-20T20:51:34.833Z,100389.75
2022-08-20T20:54:05.964Z,100391.56
2022-08-20T20:56:36.733Z,100388.34
2022-08-20T20:59:08.227Z,100382.25
2022-08-20T21:01:48.200Z,100387.13
2022-08-20T21:04:25.282Z,100378.03
2022-08-20T21:07:01.186Z,100384.34
2022-08-20T21:09:29.080Z,100382.78
2022-08-20T21:11:56.554Z,100384.47
2022-08-20T21:14:25.125Z,100378.28
2022-08-20T21:16:54.306Z,100381.78
2022-08-20T21:19:25.143Z,100380.38
2022-08-20T21:21:53.677Z,100378.06
2022-08-20T21:24:22.724Z,100396.88
2022-08-20T21:26:58.924Z,100397.09
2022-08-20T21:29:33.961Z,100394.59
2022-08-20T21:32:01.762Z,100400.88
2022-08-20T21:34:29.209Z,100408.28
2022-08-20T21:36:56.556Z,100406.59
2022-08-20T21:39:26.689Z,100399.81
2022-08-20T21:41:58.941Z,100407.81
2022-08-20T21:44:31.366Z,100404.44
2022-08-20T21:47:03.408Z,100404.56
2022-08-20T21:49:31.947Z,100406.47
2022-08-20T21:52:01.745Z,100404.91
2022-08-20T21:54:30.520Z,100410.25
2022-08-20T21:57:22.367Z,100403.47
2022-08-20T22:00:02.830Z,100406.16
2022-08-20T22:02:31.001Z,100400.09
2022-08-20T22:04:59.744Z,100403.72
2022-08-20T22:07:30.148Z,100402.03
2022-08-20T22:09:57.929Z,100402.16
2022-08-20T22:12:29.536Z,100393.31
2022-08-20T22:14:58.615Z,100389.78
2022-08-20T22:17:25.756Z,100389.94
2022-08-20T22:19:54.402Z,100394.41
2022-08-20T22:22:23.210Z,100394.53
2022-08-20T22:24:50.562Z,100391.97
2022-08-20T22:27:17.929Z,100389.22
2022-08-20T22:29:46.856Z,100387.50
2022-08-20T22:32:15.304Z,100390.31
2022-08-20T22:34:44.586Z,100391.13
2022-08-20T22:37:13.455Z,100391.03
2022-08-20T22:39:42.579Z,100389.47
2022-08-20T22:42:10.174Z,100391.38
2022-08-20T22:44:37.601Z,100399.38
2022-08-20T22:47:07.906Z,100395.03
2022-08-20T22:49:37.405Z,100400.47
2022-08-20T22:52:05.287Z,100410.16
2022-08-20T22:54:33.753Z,100407.59
2022-08-20T22:57:01.191Z,100404.09
2022-08-20T22:59:29.019Z,100405.28
2022-08-20T23:01:58.611Z,100413.41
2022-08-20T23:04:29.413Z,100410.03
2022-08-20T23:06:57.606Z,100415.38
2022-08-20T23:09:25.715Z,100418.97
2022-08-20T23:11:53.479Z,100417.28
2022-08-20T23:14:21.278Z,100419.22
2022-08-20T23:16:58.636Z,100409.56
2022-08-20T23:19:26.444Z,100410.50
2022-08-20T23:21:53.790Z,100401.81
2022-08-20T23:24:21.974Z,100399.13
2022-08-20T23:26:53.265Z,100397.56
2022-08-20T23:29:22.545Z,100402.03
2022-08-20T23:31:53.267Z,100402.16
2022-08-20T23:34:20.439Z,100394.28
2022-08-20T23:36:48.099Z,100397.81
2022-08-20T23:39:15.238Z,100396.09
2022-08-20T23:41:45.431Z,100396.94
2022-08-20T23:44:25.896Z,100397.19
2022-08-20T23:46:57.116Z,100394.53
2022-08-20T23:49:24.224Z,100407.63
2022-08-20T23:51:51.182Z,100409.31
2022-08-20T23:54:18.300Z,100405.81
2022-08-20T23:56:45.425Z,100399.75
2022-08-20T23:59:12.383Z,100403.47
